createdAt,value
2022-12-04T00:00:25.131Z,2.24
2022-12-04T00:02:53.067Z,2.27
2022-12-04T00:05:19.657Z,2.26
2022-12-04T00:07:46.285Z,2.27
2022-12-04T00:10:12.841Z,2.27
2022-12-04T00:12:39.499Z,2.26
2022-12-04T00:17:55.620Z,2.23
2022-12-04T00:20:23.543Z,2.20
2022-12-04T00:22:50.284Z,2.21
2022-12-04T00:25:17.091Z,2.19
2022-12-04T00:27:43.686Z,2.20
2022-12-04T00:30:11.262Z,2.19
2022-12-04T00:32:37.817Z,2.18
2022-12-04T00:35:06.887Z,2.19
2022-12-04T00:37:33.492Z,2.21
2022-12-04T00:40:00.083Z,2.18
2022-12-04T00:42:26.797Z,2.21
2022-12-04T00:44:53.410Z,2.25
2022-12-04T00:47:19.996Z,2.23
2022-12-04T00:49:46.646Z,2.22
2022-12-04T00:52:14.562Z,2.23
2022-12-04T00:54:41.115Z,2.17
2022-12-04T00:57:07.719Z,2.21
2022-12-04T00:59:34.391Z,2.19
2022-12-04T01:02:00.899Z,2.22
2022-12-04T01:04:27.452Z,2.22
2022-12-04T01:06:54.112Z,2.19
2022-12-04T01:09:21.998Z,2.20
2022-12-04T01:11:48.828Z,2.21
2022-12-04T01:14:15.457Z,2.16
2022-12-04T01:16:42.222Z,2.17
2022-12-04T01:19:11.549Z,2.17
2022-12-04T01:21:38.708Z,2.14
2022-12-04T01:24:06.179Z,2.16
2022-12-04T01:26:35.042Z,2.15
2022-12-04T01:29:01.969Z,2.16
2022-12-04T01:31:28.701Z,2.16
2022-12-04T01:33:55.571Z,2.16
2022-12-04T01:36:24.695Z,2.15
2022-12-04T01:38:51.603Z,2.17
2022-12-04T01:41:20.737Z,2.16
2022-12-04T01:44:10.785Z,2.16
2022-12-04T01:46:37.524Z,2.15
2022-12-04T01:49:06.762Z,2.15
2022-12-04T01:51:35.690Z,2.15
2022-12-04T01:54:05.668Z,2.14
2022-12-04T01:56:36.337Z,2.13
2022-12-04T01:59:04.181Z,2.11
2022-12-04T02:01:38.529Z,2.13
2022-12-04T02:04:05.148Z,2.12
2022-12-04T02:06:31.685Z,2.11
2022-12-04T02:08:58.387Z,2.09
2022-12-04T02:11:35.803Z,2.07
2022-12-04T02:14:09.984Z,2.07
2022-12-04T02:16:44.978Z,2.07
2022-12-04T02:19:32.986Z,2.09
2022-12-04T02:22:02.972Z,2.07
2022-12-04T02:24:49.790Z,2.07
2022-12-04T02:27:31.548Z,2.04
2022-12-04T02:30:02.589Z,2.07
2022-12-04T02:32:37.261Z,2.05
2022-12-04T02:35:10.319Z,2.07
2022-12-04T02:37:39.758Z,2.04
2022-12-04T02:40:11.669Z,2.03
2022-12-04T02:42:42.418Z,2.06
2022-12-04T02:45:13.439Z,2.03
2022-12-04T02:47:42.765Z,2.04
2022-12-04T02:50:13.462Z,2.03
2022-12-04T02:52:44.530Z,2.03
2022-12-04T02:55:14.402Z,2.05
2022-12-04T02:57:46.801Z,2.03
2022-12-04T03:00:16.665Z,2.07
2022-12-04T03:02:48.602Z,2.04
2022-12-04T03:05:18.667Z,2.04
2022-12-04T03:07:49.113Z,2.04
2022-12-04T03:10:18.762Z,2.04
2022-12-04T03:12:50.539Z,2.03
2022-12-04T03:15:21.852Z,2.00
2022-12-04T03:17:56.068Z,1.98
2022-12-04T03:20:23.680Z,2.00
2022-12-04T03:22:54.995Z,1.98
2022-12-04T03:25:26.114Z,1.99
2022-12-04T03:28:00.103Z,2.01
2022-12-04T03:30:32.378Z,1.99
2022-12-04T03:33:07.106Z,2.01
2022-12-04T03:35:41.556Z,2.01
2022-12-04T03:38:15.152Z,2.03
2022-12-04T03:40:46.256Z,2.02
2022-12-04T03:43:19.925Z,2.02
2022-12-04T03:45:52.753Z,2.03
2022-12-04T03:48:24.284Z,1.99
2022-12-04T03:50:55.957Z,2.01
2022-12-04T03:53:30.227Z,2.02
2022-12-04T03:56:02.063Z,2.00
2022-12-04T03:58:31.969Z,2.02
2022-12-04T04:01:04.008Z,1.98
2022-12-04T04:03:35.472Z,2.01
2022-12-04T04:06:05.999Z,1.96
2022-12-04T04:08:38.705Z,1.93
2022-12-04T04:11:12.022Z,1.96
2022-12-04T04:13:44.389Z,1.97
2022-12-04T04:16:17.144Z,1.96
2022-12-04T04:18:44.511Z,1.97
2022-12-04T04:21:13.211Z,1.97
2022-12-04T04:23:44.304Z,1.94
2022-12-04T04:26:13.215Z,1.95
2022-12-04T04:28:41.860Z,1.95
2022-12-04T04:31:19.123Z,1.97
2022-12-04T04:33:55.203Z,1.95
2022-12-04T04:36:27.737Z,1.98
2022-12-04T04:39:01.783Z,1.98
2022-12-04T04:41:39.039Z,1.98
2022-12-04T04:44:15.476Z,1.96
2022-12-04T04:46:48.220Z,1.98
2022-12-04T04:49:15.923Z,1.98
2022-12-04T04:51:44.094Z,1.97
2022-12-04T04:54:14.460Z,1.99
2022-12-04T04:56:42.822Z,1.94
2022-12-04T04:59:09.626Z,1.96
2022-12-04T05:01:38.245Z,1.98
2022-12-04T05:04:07.555Z,1.94
2022-12-04T05:06:34.295Z,1.95
2022-12-04T05:09:01.031Z,1.97
2022-12-04T05:11:27.732Z,1.96
2022-12-04T05:13:54.331Z,1.96
2022-12-04T05:16:21.199Z,1.99
2022-12-04T05:18:48.245Z,1.99
2022-12-04T05:21:16.189Z,1.96
2022-12-04T05:23:43.075Z,1.94
2022-12-04T05:26:09.773Z,1.93
2022-12-04T05:28:36.331Z,1.91
2022-12-04T05:31:03.571Z,1.89
2022-12-04T05:33:30.572Z,1.92
2022-12-04T05:35:58.366Z,1.91
2022-12-04T05:38:26.499Z,1.91
2022-12-04T05:40:53.083Z,1.88
2022-12-04T05:43:19.989Z,1.89
2022-12-04T05:45:46.639Z,1.87
2022-12-04T05:48:13.257Z,1.87
2022-12-04T05:50:39.791Z,1.87
2022-12-04T05:53:06.561Z,1.80
2022-12-04T05:55:34.544Z,1.76
2022-12-04T05:58:01.128Z,1.76
2022-12-04T06:00:28.295Z,1.71
2022-12-04T06:02:54.959Z,1.67
2022-12-04T06:05:21.873Z,1.64
2022-12-04T06:07:48.449Z,1.66
2022-12-04T06:10:15.027Z,1.62
2022-12-04T06:12:42.929Z,1.59
2022-12-04T06:15:10.493Z,1.53
2022-12-04T06:17:37.132Z,1.52
2022-12-04T06:20:10.934Z,1.52
2022-12-04T06:22:38.144Z,1.48
2022-12-04T06:25:05.376Z,1.51
2022-12-04T06:27:32.231Z,1.51
2022-12-04T06:30:00.192Z,1.52
2022-12-04T06:32:26.826Z,1.51
2022-12-04T06:34:54.822Z,1.54
2022-12-04T06:37:23.266Z,1.56
2022-12-04T06:39:50.266Z,1.60
2022-12-04T06:42:17.078Z,1.59
2022-12-04T06:44:43.722Z,1.62
2022-12-04T06:47:11.657Z,1.61
2022-12-04T06:49:38.883Z,1.63
2022-12-04T06:52:05.460Z,1.59
2022-12-04T06:54:32.137Z,1.61
2022-12-04T06:56:58.640Z,1.59
2022-12-04T06:59:25.419Z,1.59
2022-12-04T07:01:52.177Z,1.60
2022-12-04T07:04:20.240Z,1.64
2022-12-04T07:06:46.852Z,1.62
2022-12-04T07:09:15.315Z,1.60
2022-12-04T07:11:43.247Z,1.63
2022-12-04T07:14:10.579Z,1.62
2022-12-04T07:16:41.555Z,1.64
2022-12-04T07:19:09.540Z,1.64
2022-12-04T07:21:37.554Z,1.64
2022-12-04T07:24:04.359Z,1.61
2022-12-04T07:26:31.379Z,1.59
2022-12-04T07:29:00.230Z,1.56
2022-12-04T07:31:28.554Z,1.53
2022-12-04T07:33:55.814Z,1.52
2022-12-04T07:36:24.183Z,1.52
2022-12-04T07:38:52.325Z,1.55
2022-12-04T07:41:19.549Z,1.59
2022-12-04T07:43:46.713Z,1.59
2022-12-04T07:46:15.924Z,1.60
2022-12-04T07:48:43.009Z,1.63
2022-12-04T07:51:11.789Z,1.64
2022-12-04T07:53:38.830Z,1.69
2022-12-04T07:56:07.795Z,1.74
2022-12-04T07:58:34.582Z,1.82
2022-12-04T08:01:09.549Z,1.84
2022-12-04T08:03:36.374Z,1.90
2022-12-04T08:06:04.130Z,1.91
2022-12-04T08:08:31.248Z,1.92
2022-12-04T08:10:58.502Z,1.97
2022-12-04T08:13:26.487Z,2.06
2022-12-04T08:15:53.084Z,2.03
2022-12-04T08:18:19.673Z,2.05
2022-12-04T08:20:46.269Z,2.07
2022-12-04T08:23:15.966Z,2.12
2022-12-04T08:25:42.589Z,2.14
2022-12-04T08:28:09.207Z,2.17
2022-12-04T08:30:37.281Z,2.19
2022-12-04T08:33:03.877Z,2.18
2022-12-04T08:35:30.484Z,2.21
2022-12-04T08:37:57.119Z,2.22
2022-12-04T08:40:23.735Z,2.24
2022-12-04T08:42:50.250Z,2.23
2022-12-04T08:45:17.042Z,2.21
2022-12-04T08:47:49.235Z,2.20
2022-12-04T08:50:18.823Z,2.19
2022-12-04T08:52:45.400Z,2.20
2022-12-04T08:55:12.027Z,2.22
2022-12-04T08:57:38.535Z,2.22
2022-12-04T09:00:06.446Z,2.20
2022-12-04T09:02:32.970Z,2.19
2022-12-04T09:05:00.895Z,2.20
2022-12-04T09:07:27.739Z,2.24
2022-12-04T09:09:54.338Z,2.20
2022-12-04T09:12:20.913Z,2.20
2022-12-04T09:14:47.479Z,2.22
2022-12-04T09:17:14.118Z,2.21
2022-12-04T09:19:40.712Z,2.23
2022-12-04T09:22:08.606Z,2.22
2022-12-04T09:24:35.231Z,2.21
2022-12-04T09:27:02.021Z,2.23
2022-12-04T09:29:28.653Z,2.23
2022-12-04T09:31:55.411Z,2.22
2022-12-04T09:34:22.007Z,2.22
2022-12-04T09:36:48.656Z,2.21
2022-12-04T09:39:16.499Z,2.22
2022-12-04T09:42:25.185Z,2.27
2022-12-04T09:44:57.874Z,2.21
2022-12-04T09:47:29.832Z,2.22
2022-12-04T09:50:00.353Z,2.20
2022-12-04T09:52:42.324Z,2.23
2022-12-04T09:55:18.440Z,2.22
2022-12-04T09:57:47.956Z,2.23
2022-12-04T10:00:17.179Z,2.26
2022-12-04T10:02:49.662Z,2.30
2022-12-04T10:05:19.405Z,2.33
2022-12-04T10:07:59.293Z,2.34
2022-12-04T10:10:37.718Z,2.34
2022-12-04T10:13:19.469Z,2.32
2022-12-04T10:15:52.508Z,2.33
2022-12-04T10:18:31.767Z,2.34
2022-12-04T10:21:23.729Z,2.36
2022-12-04T10:23:59.217Z,2.37
2022-12-04T10:26:32.492Z,2.34
2022-12-04T10:29:02.688Z,2.34
2022-12-04T10:31:32.579Z,2.31
2022-12-04T10:34:05.510Z,2.34
2022-12-04T10:36:35.288Z,2.33
2022-12-04T10:39:07.200Z,2.33
2022-12-04T10:41:43.478Z,2.28
2022-12-04T10:44:14.119Z,2.30
2022-12-04T10:46:45.691Z,2.33
2022-12-04T10:49:17.429Z,2.37
2022-12-04T10:51:45.503Z,2.37
2022-12-04T10:54:20.149Z,2.35
2022-12-04T10:56:56.183Z,2.39
2022-12-04T10:59:23.156Z,2.41
2022-12-04T11:01:52.141Z,2.38
2022-12-04T11:04:22.302Z,2.40
2022-12-04T11:06:49.619Z,2.41
2022-12-04T11:09:21.143Z,2.47
2022-12-04T11:11:48.053Z,2.46
2022-12-04T11:14:18.119Z,2.42
2022-12-04T11:16:47.705Z,2.45
2022-12-04T11:19:23.489Z,2.47
2022-12-04T11:22:19.269Z,2.49
2022-12-04T11:24:51.804Z,2.54
2022-12-04T11:27:23.975Z,2.54
2022-12-04T11:29:52.021Z,2.52
2022-12-04T11:32:22.439Z,2.52
2022-12-04T11:35:24.901Z,2.58
2022-12-04T11:37:54.000Z,2.57
2022-12-04T11:40:21.488Z,2.54
2022-12-04T11:43:00.756Z,2.61
2022-12-04T11:45:29.023Z,2.58
2022-12-04T11:47:57.537Z,2.59
2022-12-04T11:50:38.305Z,2.58
2022-12-04T11:53:14.559Z,2.63
2022-12-04T11:55:59.606Z,2.63
2022-12-04T11:58:44.576Z,2.69
2022-12-04T12:01:26.007Z,2.68
2022-12-04T12:04:07.590Z,2.67
2022-12-04T12:06:37.816Z,2.69
2022-12-04T12:09:26.275Z,2.75
2022-12-04T12:11:58.491Z,2.76
2022-12-04T12:14:32.539Z,2.73
2022-12-04T12:17:14.215Z,2.73
2022-12-04T12:20:01.391Z,2.73
2022-12-04T12:22:43.791Z,2.73
2022-12-04T12:25:19.349Z,2.71
2022-12-04T12:28:00.913Z,2.72
2022-12-04T12:30:32.450Z,2.74
2022-12-04T12:33:08.355Z,2.71
2022-12-04T12:35:39.815Z,2.72
2022-12-04T12:38:11.410Z,2.71
2022-12-04T12:40:42.693Z,2.74
2022-12-04T12:43:14.466Z,2.74
2022-12-04T12:45:48.079Z,2.78
2022-12-04T12:48:25.276Z,2.79
2022-12-04T12:51:14.921Z,2.79
2022-12-04T12:53:47.742Z,2.81
2022-12-04T12:56:15.902Z,2.80
2022-12-04T12:58:48.813Z,2.77
2022-12-04T13:01:18.787Z,2.74
2022-12-04T13:03:54.847Z,2.77
2022-12-04T13:06:28.040Z,2.77
2022-12-04T13:09:03.834Z,2.77
2022-12-04T13:11:31.995Z,2.72
2022-12-04T13:14:00.413Z,2.70
2022-12-04T13:16:30.913Z,2.69
2022-12-04T13:19:08.791Z,2.67
2022-12-04T13:21:40.955Z,2.66
2022-12-04T13:24:38.810Z,2.68
2022-12-04T13:27:11.950Z,2.66
2022-12-04T13:29:54.727Z,2.64
2022-12-04T13:32:40.095Z,2.69
2022-12-04T13:35:17.991Z,2.66
2022-12-04T13:38:10.390Z,2.68
2022-12-04T13:40:40.411Z,2.68
2022-12-04T13:43:15.564Z,2.66
2022-12-04T13:45:45.171Z,2.65
2022-12-04T13:48:11.793Z,2.64
2022-12-04T13:50:40.219Z,2.65
2022-12-04T13:53:30.199Z,2.66
2022-12-04T13:55:57.041Z,2.65
2022-12-04T13:58:27.910Z,2.66
2022-12-04T14:01:02.521Z,2.66
2022-12-04T14:03:32.380Z,2.64
2022-12-04T14:06:01.434Z,2.65
2022-12-04T14:08:33.908Z,2.68
2022-12-04T14:11:05.147Z,2.67
2022-12-04T14:13:43.071Z,2.68
2022-12-04T14:16:20.336Z,2.69
2022-12-04T14:18:48.808Z,2.69
2022-12-04T14:21:17.064Z,2.67
2022-12-04T14:23:44.249Z,2.70
2022-12-04T14:26:42.858Z,2.72
2022-12-04T14:29:38.497Z,2.73
2022-12-04T14:32:09.919Z,2.72
2022-12-04T14:34:38.328Z,2.74
2022-12-04T14:37:06.872Z,2.75
2022-12-04T14:39:36.692Z,2.73
2022-12-04T14:42:07.337Z,2.72
2022-12-04T14:44:34.208Z,2.75
2022-12-04T14:47:14.917Z,2.76
2022-12-04T14:49:54.642Z,2.76
2022-12-04T14:52:28.154Z,2.73
2022-12-04T14:55:02.027Z,2.72
2022-12-04T14:57:42.779Z,2.74
2022-12-04T15:00:16.272Z,2.75
2022-12-04T15:02:45.640Z,2.76
2022-12-04T15:05:19.881Z,2.74
2022-12-04T15:07:50.816Z,2.76
2022-12-04T15:10:21.084Z,2.72
2022-12-04T15:12:51.011Z,2.74
2022-12-04T15:15:20.444Z,2.75
2022-12-04T15:17:58.371Z,2.77
2022-12-04T15:20:26.068Z,2.76
2022-12-04T15:22:56.239Z,2.77
2022-12-04T15:25:26.209Z,2.78
2022-12-04T15:28:00.538Z,2.76
2022-12-04T15:30:29.520Z,2.77
2022-12-04T15:32:56.571Z,2.80
2022-12-04T15:35:27.336Z,2.78
2022-12-04T15:37:55.811Z,2.79
2022-12-04T15:40:24.156Z,2.80
2022-12-04T15:42:51.488Z,2.83
2022-12-04T15:45:29.743Z,2.82
2022-12-04T15:47:56.352Z,2.86
2022-12-04T15:50:26.487Z,2.86
2022-12-04T15:52:59.539Z,2.87
2022-12-04T15:55:28.038Z,2.90
2022-12-04T15:57:56.726Z,2.88
2022-12-04T16:00:27.010Z,2.89
2022-12-04T16:02:54.677Z,2.88
2022-12-04T16:05:32.945Z,2.91
2022-12-04T16:08:03.064Z,2.94
2022-12-04T16:10:32.206Z,2.92
2022-12-04T16:13:00.469Z,2.93
2022-12-04T16:15:37.397Z,2.92
2022-12-04T16:18:05.680Z,2.95
2022-12-04T16:20:34.305Z,2.94
2022-12-04T16:23:03.060Z,2.98
2022-12-04T16:25:29.679Z,2.95
2022-12-04T16:27:56.220Z,2.96
2022-12-04T16:30:22.804Z,2.96
2022-12-04T16:32:49.501Z,2.95
2022-12-04T16:35:17.015Z,2.98
2022-12-04T16:37:43.632Z,2.98
2022-12-04T16:40:13.239Z,2.99
2022-12-04T16:42:40.568Z,3.00
2022-12-04T16:45:22.640Z,3.02
2022-12-04T16:47:49.480Z,3.05
2022-12-04T16:50:16.182Z,3.07
2022-12-04T16:52:42.860Z,3.07
2022-12-04T16:55:18.029Z,3.07
2022-12-04T16:57:44.747Z,3.09
2022-12-04T17:00:13.109Z,3.11
2022-12-04T17:02:40.307Z,3.11
2022-12-04T17:05:07.667Z,3.12
2022-12-04T17:07:34.287Z,3.11
2022-12-04T17:10:00.816Z,3.12
2022-12-04T17:12:28.819Z,3.11
2022-12-04T17:14:55.591Z,3.14
2022-12-04T17:17:22.280Z,3.13
2022-12-04T17:19:48.851Z,3.12
2022-12-04T17:22:15.428Z,3.11
2022-12-04T17:24:48.112Z,3.12
2022-12-04T17:27:17.048Z,3.13
2022-12-04T17:29:44.928Z,3.13
2022-12-04T17:32:11.572Z,3.14
2022-12-04T17:34:38.232Z,3.14
2022-12-04T17:37:04.940Z,3.14
2022-12-04T17:39:31.555Z,3.14
2022-12-04T17:41:58.246Z,3.14
2022-12-04T17:44:24.932Z,3.15
2022-12-04T17:46:52.784Z,3.15
2022-12-04T17:49:19.413Z,3.15
2022-12-04T17:51:45.987Z,3.15
2022-12-04T17:54:12.816Z,3.15
2022-12-04T17:56:43.300Z,3.17
2022-12-04T17:59:12.779Z,3.17
2022-12-04T18:01:39.420Z,3.17
2022-12-04T18:04:07.920Z,3.17
2022-12-04T18:06:36.161Z,3.18
2022-12-04T18:09:03.501Z,3.19
2022-12-04T18:11:31.998Z,3.17
2022-12-04T18:14:00.443Z,3.19
2022-12-04T18:16:28.214Z,3.18
2022-12-04T18:18:55.412Z,3.18
2022-12-04T18:21:23.720Z,3.17
2022-12-04T18:23:50.720Z,3.18
2022-12-04T18:26:19.930Z,3.17
2022-12-04T18:28:47.035Z,3.16
2022-12-04T18:31:15.237Z,3.19
2022-12-04T18:33:42.576Z,3.18
2022-12-04T18:36:14.020Z,3.20
2022-12-04T18:38:42.309Z,3.18
2022-12-04T18:41:10.655Z,3.18
2022-12-04T18:43:39.118Z,3.18
2022-12-04T18:46:08.758Z,3.20
2022-12-04T18:48:36.288Z,3.17
2022-12-04T18:51:15.744Z,3.20
2022-12-04T18:53:43.952Z,3.19
2022-12-04T18:56:10.667Z,3.19
2022-12-04T18:58:37.383Z,3.21
2022-12-04T19:01:05.445Z,3.19
2022-12-04T19:03:32.166Z,3.19
2022-12-04T19:05:58.785Z,3.20
2022-12-04T19:08:29.895Z,3.23
2022-12-04T19:11:07.173Z,3.22
2022-12-04T19:13:34.500Z,3.22
2022-12-04T19:16:01.699Z,3.22
2022-12-04T19:18:28.951Z,3.20
2022-12-04T19:20:56.395Z,3.19
2022-12-04T19:23:23.540Z,3.17
2022-12-04T19:25:54.765Z,3.22
2022-12-04T19:28:23.349Z,3.18
2022-12-04T19:30:50.054Z,3.22
2022-12-04T19:33:19.283Z,3.20
2022-12-04T19:35:56.686Z,3.22
2022-12-04T19:38:23.766Z,3.23
2022-12-04T19:40:50.914Z,3.27
2022-12-04T19:43:17.778Z,3.24
2022-12-04T19:45:48.847Z,3.26
2022-12-04T19:48:15.821Z,3.25
2022-12-04T19:50:42.678Z,3.25
2022-12-04T19:53:09.575Z,3.27
2022-12-04T19:55:36.349Z,3.25
2022-12-04T19:58:03.047Z,3.24
2022-12-04T20:00:29.652Z,3.26
2022-12-04T20:02:57.809Z,3.27
2022-12-04T20:05:24.647Z,3.23
2022-12-04T20:07:51.387Z,3.26
2022-12-04T20:10:18.247Z,3.22
2022-12-04T20:12:44.915Z,3.24
2022-12-04T20:15:11.579Z,3.21
2022-12-04T20:17:38.462Z,3.22
2022-12-04T20:20:07.976Z,3.22
2022-12-04T20:22:34.661Z,3.20
2022-12-04T20:25:01.816Z,3.22
2022-12-04T20:27:28.650Z,3.23
2022-12-04T20:29:57.804Z,3.24
2022-12-04T20:32:24.583Z,3.23
2022-12-04T20:34:51.214Z,3.23
2022-12-04T20:37:19.300Z,3.23
2022-12-04T20:39:46.002Z,3.25
2022-12-04T20:42:12.932Z,3.25
2022-12-04T20:44:39.798Z,3.24
2022-12-04T20:47:06.768Z,3.23
2022-12-04T20:49:34.626Z,3.22
2022-12-04T20:52:01.328Z,3.25
2022-12-04T20:54:30.642Z,3.22
2022-12-04T20:56:57.355Z,3.25
2022-12-04T20:59:24.296Z,3.23
2022-12-04T21:01:51.990Z,3.20
2022-12-04T21:04:19.420Z,3.20
2022-12-04T21:06:49.335Z,3.20
2022-12-04T21:09:18.248Z,3.22
2022-12-04T21:11:48.415Z,3.22
2022-12-04T21:14:17.282Z,3.22
2022-12-04T21:16:44.758Z,3.23
2022-12-04T21:19:13.350Z,3.24
2022-12-04T21:21:40.469Z,3.23
2022-12-04T21:24:11.817Z,3.20
2022-12-04T21:26:38.861Z,3.20
2022-12-04T21:29:07.553Z,3.18
2022-12-04T21:31:35.387Z,3.22
2022-12-04T21:34:04.155Z,3.23
2022-12-04T21:36:31.440Z,3.22
2022-12-04T21:38:58.074Z,3.20
2022-12-04T21:41:25.136Z,3.20
2022-12-04T21:43:51.702Z,3.23
2022-12-04T21:46:19.753Z,3.21
2022-12-04T21:48:46.943Z,3.21
2022-12-04T21:51:39.852Z,3.19
2022-12-04T21:54:01.630Z,3.21
2022-12-04T21:56:28.364Z,3.20
2022-12-04T21:58:56.649Z,3.20
2022-12-04T22:01:26.021Z,3.22
2022-12-04T22:03:53.320Z,3.19
2022-12-04T22:06:20.686Z,3.18
2022-12-04T22:08:47.895Z,3.23
2022-12-04T22:11:15.796Z,3.22
2022-12-04T22:13:42.603Z,3.24
2022-12-04T22:16:11.957Z,3.25
2022-12-04T22:18:40.413Z,3.24
2022-12-04T22:21:09.152Z,3.22
2022-12-04T22:23:36.548Z,3.22
2022-12-04T22:26:08.120Z,3.23
2022-12-04T22:28:35.267Z,3.22
2022-12-04T22:31:02.848Z,3.21
2022-12-04T22:33:29.572Z,3.22
2022-12-04T22:36:01.627Z,3.20
2022-12-04T22:38:28.264Z,3.19
2022-12-04T22:40:54.916Z,3.19
2022-12-04T22:43:21.680Z,3.21
2022-12-04T22:45:49.034Z,3.20
2022-12-04T22:48:15.617Z,3.24
2022-12-04T22:50:42.264Z,3.22
2022-12-04T22:53:10.237Z,3.22
2022-12-04T22:55:36.926Z,3.22
2022-12-04T22:58:03.638Z,3.22
2022-12-04T23:00:30.335Z,3.24
2022-12-04T23:02:57.059Z,3.23
2022-12-04T23:05:23.717Z,3.23
2022-12-04T23:07:50.495Z,3.25
2022-12-04T23:10:18.536Z,3.25
2022-12-04T23:12:45.087Z,3.26
2022-12-04T23:15:11.956Z,3.24
2022-12-04T23:17:38.515Z,3.25
2022-12-04T23:20:06.598Z,3.26
2022-12-04T23:22:33.158Z,3.26
2022-12-04T23:25:00.232Z,3.27
2022-12-04T23:27:30.712Z,3.27
2022-12-04T23:29:57.517Z,3.30
2022-12-04T23:32:24.413Z,3.27
2022-12-04T23:34:51.192Z,3.25
2022-12-04T23:37:17.802Z,3.26
2022-12-04T23:39:44.527Z,3.26
2022-12-04T23:42:11.150Z,3.25
2022-12-04T23:44:39.229Z,3.30
2022-12-04T23:47:05.974Z,3.30
2022-12-04T23:49:32.687Z,3.28
2022-12-04T23:51:59.381Z,3.27
2022-12-04T23:54:26.182Z,3.26
2022-12-04T23:56:52.745Z,3.26
2022-12-04T23:59:19.569Z,3.28
